ADDS METAR Data INFO
IDs: Format: Raw Decoded Include TAF

Data at: 1953 UTC 18 Feb 2018

KBVO 181853Z 18011G21KT 10SM OVC019 09/04 A2997 RMK AO2 SLP149 T00940039
KBVO 181753Z 18015G26KT 10SM OVC021 09/03 A3002 RMK AO2 PK WND 17026/1746 SLP165 T00890033 10094 20006 58028
KBVO 181653Z 17014KT 10SM BKN024 09/03 A3006 RMK AO2 SLP179 T00890028
KBVO 181553Z 17013G19KT 10SM CLR 07/02 A3009 RMK AO2 SLP190 T00720022
KBVO 181453Z 17010KT 10SM CLR 05/02 A3010 RMK AO2 SLP195 T00500017 58012
KBVO 181353Z AUTO 17011G18KT 10SM CLR 04/02 A3013 RMK AO2 SLP202 T00440017
KBVO 181253Z AUTO 17007KT 9SM CLR 03/01 A3012 RMK AO2 SLP201 T00280011
KBVO 181153Z AUTO 16005KT 4SM BR CLR 01/00 A3014 RMK AO2 SLP205 I1000 I6000 T00060000 10011 21039 58015
KBVO 181053Z AUTO 17003KT 3SM BR CLR M02/M03 A3015 RMK AO2 SLP208 T10171028
KBVO 180953Z AUTO 00000KT 9SM CLR M03/M04 A3018 RMK AO2 SLP217 T10281044
KBVO 180853Z AUTO 00000KT 9SM CLR M03/M04 A3019 RMK AO2 SLP220 T10281039 58009
KBVO 180753Z AUTO 00000KT 10SM CLR M02/M03 A3021 RMK AO2 SLP227 T10221033
KBVO 180653Z AUTO 00000KT 10SM CLR M02/M04 A3021 RMK AO2 SLP229 T10221039
KBVO 180553Z AUTO 00000KT 10SM CLR M02/M03 A3021 RMK AO2 SLP231 T10171033 10122 21028 401671028 53001
KBVO 180453Z AUTO 00000KT 10SM CLR M02/M03 A3022 RMK AO2 SLP232 T10171033
KBVO 180353Z AUTO 00000KT 10SM CLR M02/M04 A3021 RMK AO2 SLP229 T10171039
KBVO 180253Z AUTO 00000KT 10SM CLR M02/M04 A3021 RMK AO2 SLP231 T10171044 51016
KBVO 180153Z AUTO 00000KT 10SM CLR 01/M04 A3021 RMK AO2 SLP230 T00111039
KBVO 180053Z AUTO 00000KT 10SM CLR 03/M02 A3018 RMK AO2 SLP221 T00331022
KBVO 172353Z AUTO 02004KT 10SM CLR 12/M07 A3016 RMK AO2 SLP212 T01221067 10167 20100 53012
KBVO 172253Z AUTO 01012G16KT 10SM CLR 16/M07 A3014 RMK AO2 SLP203 T01561067
KBVO 172153Z AUTO VRB04KT 10SM CLR 17/M02 A3013 RMK AO2 SLP200 T01671022
KBVO 172053Z AUTO VRB03KT 10SM CLR 16/M01 A3013 RMK AO2 SLP199 T01561006 55000
KBVO 171953Z AUTO 01009KT 10SM CLR 15/00 A3012 RMK AO2 SLP197 T01500000
KBVO 171853Z AUTO VRB06KT 10SM CLR 12/02 A3012 RMK AO2 SLP198 T01220022
KBVO 171753Z AUTO VRB06KT 10SM CLR 10/03 A3013 RMK AO2 SLP200 T01000033 10100 20022 51017
KBVO 171714Z AUTO 25005KT 10SM SCT018 08/04 A3012 RMK AO2 T00830039
KBVO 171706Z AUTO 27008KT 250V360 10SM BKN018 08/03 A3013 RMK AO2 T00780033
KBVO 171653Z AUTO 25007KT 10SM SCT017 07/03 A3012 RMK AO2 SLP197 T00720033
KBVO 171553Z AUTO 26006KT 10SM SCT011 06/03 A3010 RMK AO2 SLP193 T00560033
KBVO 171453Z AUTO 19004KT 9SM CLR 03/02 A3008 RMK AO2 SLP185 T00330022 51021
KBVO 171432Z AUTO 22003KT 8SM FEW011 03/02 A3007 RMK AO2 T00280017
KBVO 171353Z AUTO VRB03KT 9SM OVC011 02/02 A3007 RMK AO2 SLP183 T00220017
KBVO 171253Z AUTO 22003KT 9SM OVC012 02/01 A3003 RMK AO2 SLP171 T00220011
KBVO 171153Z AUTO 18003KT 10SM OVC010 02/01 A3001 RMK AO2 RAE02UPB02E09 SLP163 P0000 60031 70031 T00220011 10033 20011 56014
KBVO 171150Z AUTO 17003KT 10SM OVC010 02/01 A3001 RMK AO2 RAE02UPB02E09 P0000
KBVO 171105Z AUTO 30004KT 7SM UP BKN006 OVC060 02/01 A3004 RMK AO2 RAE02UPB02 P0000 T00220011
KBVO 171053Z AUTO 31004KT 4SM -RA BR FEW006 OVC060 02/02 A3002 RMK AO2 SLP165 P0011 T00220017
KBVO 171031Z AUTO 17008KT 4SM RA BR SCT016 OVC060 02/01 A3001 RMK AO2 P0007 T00170011
KBVO 170953Z AUTO 21003KT 7SM -RA OVC018 02/01 A3005 RMK AO2 UPB16E28 SLP177 P0006 T00170006
KBVO 170911Z AUTO 00000KT 7SM -RA BKN021 BKN026 OVC065 02/01 A3009 RMK AO2 P0003 T00170006
KBVO 170853Z AUTO 14005KT 5SM RA BR OVC065 01/00 A3007 RMK AO2 SLP181 P0011 60014 T00110000 58031